Time;durP1;ratioP1;P1;durP2;ratioP2;P2;SDS_P1;SDS_P2;PMS_P1;PMS_P2;Temp;Humidity;BMP_temperature;BMP_pressure;BME280_temperature;BME280_humidity;BME280_pressure;Samples;Min_cycle;Max_cycle;Signal;HPM_P1;HPM_P2
2020/12/15 00:01:41;;;;;;;11.68;6.72;;;;;;;3.32;100.00;100088.13;5081097;28;20051;-69
2020/12/15 00:04:28;;;;;;;10.27;7.28;;;;;;;3.29;100.00;100088.34;5081343;28;20055;-69
2020/12/15 00:07:12;;;;;;;10.93;6.80;;;;;;;3.33;100.00;100079.31;5081227;28;20067;-68
2020/12/15 00:09:56;;;;;;;14.50;6.78;;;;;;;3.37;100.00;100096.56;5096566;28;20140;-68
2020/12/15 00:12:41;;;;;;;10.30;7.10;;;;;;;3.36;100.00;100087.00;5096270;28;20051;-68
2020/12/15 00:15:25;;;;;;;21.08;10.98;;;;;;;3.39;100.00;100073.59;5096348;28;20043;-69
2020/12/15 00:18:09;;;;;;;16.42;9.50;;;;;;;3.41;100.00;100084.88;5052378;28;20059;-69
2020/12/15 00:20:53;;;;;;;10.68;7.60;;;;;;;3.47;100.00;100081.84;5096065;28;20510;-69
2020/12/15 00:23:37;;;;;;;10.38;6.70;;;;;;;3.51;100.00;100089.44;5080701;28;20055;-69
2020/12/15 00:26:21;;;;;;;10.88;7.03;;;;;;;3.58;100.00;100090.72;5096168;28;20515;-67
2020/12/15 00:29:05;;;;;;;10.05;7.15;;;;;;;3.62;100.00;100076.34;5080678;28;20043;-69
2020/12/15 00:31:49;;;;;;;12.75;7.25;;;;;;;3.67;100.00;100081.31;5095849;28;20428;-69
2020/12/15 00:34:33;;;;;;;13.23;8.20;;;;;;;3.69;100.00;100088.19;5096106;28;20043;-68
2020/12/15 00:37:17;;;;;;;12.43;8.85;;;;;;;3.72;100.00;100084.47;5066285;28;20051;-69
2020/12/15 00:40:01;;;;;;;12.05;8.18;;;;;;;3.75;100.00;100089.53;5080713;28;20507;-68
2020/12/15 00:42:45;;;;;;;8.88;6.13;;;;;;;3.82;100.00;100096.06;5095879;28;20063;-67
2020/12/15 00:45:29;;;;;;;10.10;7.50;;;;;;;3.85;100.00;100103.78;5066204;28;20101;-68
2020/12/15 00:48:13;;;;;;;9.90;6.35;;;;;;;3.84;100.00;100091.56;5080205;28;20188;-68
2020/12/15 00:50:57;;;;;;;11.20;6.95;;;;;;;3.90;100.00;100096.38;5080204;28;20067;-68
2020/12/15 00:53:41;;;;;;;10.68;7.28;;;;;;;3.87;100.00;100089.50;5095650;28;20132;-68
2020/12/15 00:56:25;;;;;;;9.57;7.35;;;;;;;3.89;100.00;100094.69;5095310;28;20089;-68
2020/12/15 00:59:10;;;;;;;10.50;7.38;;;;;;;3.91;100.00;100083.09;5080327;28;20043;-68
2020/12/15 01:02:01;;;;;;;12.77;7.45;;;;;;;3.94;100.00;100066.22;5080304;28;20059;-68
2020/12/15 01:04:46;;;;;;;11.82;7.60;;;;;;;4.00;100.00;100077.19;5095232;28;20101;-68
2020/12/15 01:07:30;;;;;;;12.68;7.88;;;;;;;4.02;100.00;100071.78;5094948;28;20046;-68
2020/12/15 01:10:14;;;;;;;17.95;10.07;;;;;;;4.04;100.00;100062.81;5095380;28;20123;-68
2020/12/15 01:12:58;;;;;;;15.48;9.93;;;;;;;4.10;100.00;100067.66;5079759;28;20135;-67
2020/12/15 01:15:42;;;;;;;17.60;9.95;;;;;;;4.15;100.00;100064.72;5095284;28;20097;-68
2020/12/15 01:18:26;;;;;;;15.73;9.57;;;;;;;4.20;100.00;100073.13;5065586;28;20097;-68
2020/12/15 01:21:11;;;;;;;15.88;10.00;;;;;;;4.31;100.00;100065.28;5079911;28;20050;-68
2020/12/15 01:23:56;;;;;;;13.95;8.93;;;;;;;4.40;100.00;100075.19;5094784;28;20462;-68
2020/12/15 01:26:44;;;;;;;12.70;8.90;;;;;;;4.26;100.00;100078.81;5079642;28;20511;-68
2020/12/15 01:29:28;;;;;;;14.98;9.52;;;;;;;4.31;100.00;100092.53;5094952;28;20137;-68
2020/12/15 01:32:12;;;;;;;13.32;7.60;;;;;;;4.30;100.00;100103.19;5079898;28;20139;-67
2020/12/15 01:34:56;;;;;;;12.57;9.02;;;;;;;4.30;100.00;100103.19;5079354;28;20114;-68
2020/12/15 01:37:40;;;;;;;15.55;9.63;;;;;;;4.30;100.00;100100.53;5094725;28;20047;-68
2020/12/15 01:40:24;;;;;;;15.00;9.48;;;;;;;4.27;100.00;100090.22;5094602;28;20580;-68
2020/12/15 01:43:08;;;;;;;16.15;9.55;;;;;;;4.30;100.00;100090.00;5093982;28;20080;-68
2020/12/15 01:45:52;;;;;;;12.95;8.55;;;;;;;4.34;100.00;100096.72;5065589;28;20416;-68
2020/12/15 01:48:36;;;;;;;11.35;8.07;;;;;;;4.37;100.00;100097.34;5079320;28;20518;-68
2020/12/15 01:51:21;;;;;;;13.60;8.68;;;;;;;4.41;100.00;100092.69;5079293;28;20050;-68
2020/12/15 01:54:05;;;;;;;11.18;8.82;;;;;;;4.42;100.00;100086.47;5079463;28;20051;-68
2020/12/15 01:56:49;;;;;;;12.15;8.45;;;;;;;4.44;100.00;100076.63;5079333;28;20050;-67
2020/12/15 01:59:33;;;;;;;10.90;7.85;;;;;;;4.48;100.00;100078.13;5079105;28;20128;-68
2020/12/15 02:02:22;;;;;;;13.18;8.38;;;;;;;4.51;100.00;100083.16;5078839;28;20420;-68
2020/12/15 02:05:07;;;;;;;11.88;7.90;;;;;;;4.52;100.00;100090.13;5094039;28;20050;-68
2020/12/15 02:07:51;;;;;;;14.85;8.43;;;;;;;4.54;100.00;100078.53;5087727;22;20055;-66
2020/12/15 02:10:35;;;;;;;13.35;8.02;;;;;;;4.54;100.00;100078.53;5074200;28;20047;-67
2020/12/15 02:13:22;;;;;;;12.57;8.30;;;;;;;4.55;100.00;100084.63;5044460;28;20495;-66
2020/12/15 02:16:08;;;;;;;12.93;7.47;;;;;;;4.57;100.00;100082.75;5058916;28;20069;-66
2020/12/15 02:18:52;;;;;;;14.48;8.20;;;;;;;4.59;100.00;100086.09;5053490;28;20110;-67
2020/12/15 02:21:53;;;;;;;12.07;8.88;;;;;;;4.59;100.00;100086.09;5052578;28;20464;-67
2020/12/15 02:24:37;;;;;;;10.73;7.93;;;;;;;4.62;100.00;100078.81;5053485;28;20044;-66
2020/12/15 02:27:21;;;;;;;13.20;9.55;;;;;;;4.67;100.00;100065.28;5052583;28;20063;-66
2020/12/15 02:30:06;;;;;;;12.60;8.70;;;;;;;4.66;100.00;100066.22;5038337;28;20468;-66
2020/12/15 02:32:50;;;;;;;12.07;8.80;;;;;;;4.68;100.00;100065.13;5053370;28;20052;-66
2020/12/15 02:35:34;;;;;;;14.50;8.82;;;;;;;4.73;100.00;100063.03;5053335;28;20127;-66
2020/12/15 02:38:18;;;;;;;13.07;8.88;;;;;;;4.75;100.00;100054.97;5052264;28;20410;-67
2020/12/15 02:41:02;;;;;;;17.13;9.40;;;;;;;4.81;100.00;100049.25;5038202;28;20056;-67
2020/12/15 02:43:45;;;;;;;17.67;11.23;;;;;;;4.87;100.00;100054.91;5053247;28;20174;-66
2020/12/15 02:46:29;;;;;;;14.85;9.77;;;;;;;4.92;100.00;100051.94;5053214;28;20101;-67
2020/12/15 02:49:13;;;;;;;16.50;10.73;;;;;;;4.93;100.00;100043.06;5052202;28;20128;-67
2020/12/15 02:51:57;;;;;;;16.90;10.82;;;;;;;4.97;100.00;100033.97;5053404;28;20569;-66
2020/12/15 02:54:41;;;;;;;16.17;10.85;;;;;;;4.99;100.00;100017.88;5052357;28;20563;-67
2020/12/15 02:57:25;;;;;;;21.73;12.70;;;;;;;5.00;100.00;100014.28;5024143;28;20128;-66
2020/12/15 03:00:10;;;;;;;16.13;11.82;;;;;;;5.02;100.00;100015.00;5052212;28;20052;-66
2020/12/15 03:02:54;;;;;;;17.25;11.32;;;;;;;5.05;100.00;100014.75;5038189;28;20063;-66
2020/12/15 03:05:38;;;;;;;15.70;10.20;;;;;;;5.09;100.00;100024.16;5038213;28;20071;-66
2020/12/15 03:08:23;;;;;;;19.38;11.95;;;;;;;5.13;100.00;100019.47;5051810;28;20507;-66
2020/12/15 03:11:07;;;;;;;13.38;8.95;;;;;;;5.14;100.00;100024.63;5052263;28;20555;-67
2020/12/15 03:13:51;;;;;;;12.52;8.80;;;;;;;5.15;100.00;100039.53;5038220;28;20103;-67
2020/12/15 03:16:36;;;;;;;14.80;9.25;;;;;;;5.11;100.00;100034.63;5052043;28;20048;-67
2020/12/15 03:19:20;;;;;;;13.93;9.05;;;;;;;5.08;100.00;100038.31;5053163;28;20052;-67
2020/12/15 03:22:04;;;;;;;12.88;9.30;;;;;;;5.06;100.00;100048.16;5052863;28;20110;-67
2020/12/15 03:24:48;;;;;;;13.65;8.70;;;;;;;5.05;100.00;100043.81;5053112;28;20132;-66
2020/12/15 03:27:32;;;;;;;15.82;9.48;;;;;;;5.04;100.00;100039.47;5052747;28;20094;-66
2020/12/15 03:30:16;;;;;;;13.70;9.95;;;;;;;5.06;100.00;100034.09;5037867;28;20052;-66
2020/12/15 03:33:00;;;;;;;15.95;10.52;;;;;;;5.08;100.00;100027.75;5037706;28;20588;-67
2020/12/15 03:35:45;;;;;;;17.10;11.13;;;;;;;5.11;100.00;100024.88;5051998;28;20047;-67
2020/12/15 03:38:29;;;;;;;15.60;11.07;;;;;;;5.15;100.00;100033.41;5037498;28;20048;-66
2020/12/15 03:41:13;;;;;;;17.05;11.02;;;;;;;5.18;100.00;100033.16;5052697;28;20048;-67
2020/12/15 03:43:57;;;;;;;17.13;10.45;;;;;;;5.21;100.00;100028.50;5052941;28;20084;-67
2020/12/15 03:46:41;;;;;;;14.25;10.15;;;;;;;5.26;100.00;100030.78;5052569;28;20552;-67
2020/12/15 03:49:25;;;;;;;13.98;10.10;;;;;;;5.29;100.00;100033.19;5038076;28;20055;-67
2020/12/15 03:52:09;;;;;;;14.98;9.93;;;;;;;5.30;100.00;100040.16;5052870;28;20468;-67
2020/12/15 03:54:54;;;;;;;13.65;9.23;;;;;;;5.27;100.00;100032.47;5052819;28;20517;-66
2020/12/15 03:57:38;;;;;;;13.57;9.40;;;;;;;5.25;100.00;100045.78;5037352;28;20052;-66
2020/12/15 04:00:22;;;;;;;13.00;9.18;;;;;;;5.18;100.00;100043.75;5052801;28;20074;-66
2020/12/15 04:03:06;;;;;;;12.50;9.82;;;;;;;5.14;100.00;100032.56;5051802;28;20107;-66
2020/12/15 04:05:50;;;;;;;21.15;12.23;;;;;;;5.12;100.00;100034.47;5054052;28;20507;-67
2020/12/15 04:08:34;;;;;;;15.10;10.50;;;;;;;5.11;100.00;100038.06;5055929;28;20047;-67
2020/12/15 04:11:17;;;;;;;19.30;11.80;;;;;;;5.13;100.00;100033.50;5040904;28;20139;-66
2020/12/15 04:14:01;;;;;;;16.80;10.88;;;;;;;5.16;100.00;100041.22;5041134;28;20129;-67
2020/12/15 04:16:45;;;;;;;26.20;13.35;;;;;;;5.21;100.00;100047.00;5055768;28;20122;-66
2020/12/15 04:19:29;;;;;;;26.17;13.60;;;;;;;5.20;100.00;100047.09;5056149;28;20143;-66
2020/12/15 04:22:13;;;;;;;21.58;12.05;;;;;;;5.19;100.00;100038.34;5055355;28;20063;-66
2020/12/15 04:24:59;;;;;;;19.15;11.93;;;;;;;5.22;100.00;100030.19;5056040;28;20051;-66
2020/12/15 04:27:43;;;;;;;18.70;11.60;;;;;;;5.26;100.00;100031.66;5055685;28;20139;-67
2020/12/15 04:30:27;;;;;;;20.17;13.05;;;;;;;5.28;100.00;100035.00;5055698;28;20425;-67
2020/12/15 04:33:12;;;;;;;23.67;11.23;;;;;;;5.31;100.00;100029.47;5055881;28;20056;-66
2020/12/15 04:35:56;;;;;;;18.80;10.57;;;;;;;5.33;100.00;100021.44;5040770;28;20047;-66
2020/12/15 04:38:40;;;;;;;15.25;10.48;;;;;;;5.34;100.00;100031.06;5055362;28;20055;-67
2020/12/15 04:41:25;;;;;;;19.08;12.55;;;;;;;5.34;100.00;100042.44;5055451;28;20412;-66
2020/12/15 04:44:09;;;;;;;15.75;11.57;;;;;;;5.36;100.00;100043.19;5054675;28;20609;-66
2020/12/15 04:47:22;;;;;;;21.42;13.30;;;;;;;5.41;100.00;100040.19;5055237;28;20512;-66
2020/12/15 04:50:07;;;;;;;17.45;10.85;;;;;;;5.41;100.00;100046.31;5040468;28;20063;-66
2020/12/15 04:52:57;;;;;;;18.92;12.95;;;;;;;5.47;100.00;100051.16;5040173;28;20131;-66
2020/12/15 04:55:41;;;;;;;18.55;12.27;;;;;;;5.48;100.00;100047.53;5040263;28;20067;-66
2020/12/15 04:58:25;;;;;;;18.48;12.77;;;;;;;5.50;100.00;100037.69;5053985;28;20091;-66
2020/12/15 05:01:09;;;;;;;20.65;11.95;;;;;;;5.52;100.00;100035.75;5055357;28;20051;-66
2020/12/15 05:03:54;;;;;;;16.55;11.65;;;;;;;5.55;100.00;100040.81;5040027;28;20056;-66
2020/12/15 05:06:38;;;;;;;18.73;12.70;;;;;;;5.53;100.00;100034.81;5054740;28;20052;-67
2020/12/15 05:09:29;;;;;;;20.40;12.00;;;;;;;5.56;100.00;100033.72;5025848;28;20091;-66
2020/12/15 05:12:14;;;;;;;22.38;14.23;;;;;;;5.60;100.00;100033.38;5039727;28;20128;-66
2020/12/15 05:14:57;;;;;;;19.52;13.65;;;;;;;5.61;100.00;100032.41;5053984;28;20052;-66
2020/12/15 05:17:43;;;;;;;20.13;13.75;;;;;;;5.66;100.00;100032.06;5053632;28;20048;-66
2020/12/15 05:20:31;;;;;;;25.35;15.23;;;;;;;5.69;100.00;100023.88;5054645;28;20501;-66
2020/12/15 05:23:21;;;;;;;24.45;15.02;;;;;;;5.72;100.00;100029.78;5039821;28;20095;-65
2020/12/15 05:26:05;;;;;;;22.10;14.05;;;;;;;5.74;100.00;100017.28;5054527;28;20048;-66
2020/12/15 05:29:06;;;;;;;22.25;15.20;;;;;;;5.76;100.00;100023.28;5054442;28;20555;-66
2020/12/15 05:31:52;;;;;;;22.00;15.60;;;;;;;5.77;100.00;100024.94;5054585;28;20067;-66
2020/12/15 05:34:36;;;;;;;23.63;15.38;;;;;;;5.77;100.00;100030.25;5054398;28;20405;-66
2020/12/15 05:37:20;;;;;;;22.63;13.75;;;;;;;5.78;100.00;100028.47;5039164;28;20056;-66
2020/12/15 05:40:04;;;;;;;23.27;14.63;;;;;;;5.82;100.00;100030.78;5039210;28;20052;-65
2020/12/15 05:42:58;;;;;;;19.50;13.52;;;;;;;5.80;100.00;100027.41;5054516;28;20109;-66
2020/12/15 05:45:49;;;;;;;19.48;13.93;;;;;;;5.79;100.00;100031.03;5039403;28;20093;-66
2020/12/15 05:48:33;;;;;;;20.17;13.85;;;;;;;5.76;100.00;100025.91;5038932;28;20048;-66
2020/12/15 05:51:22;;;;;;;18.70;13.70;;;;;;;5.77;100.00;100038.19;5039311;28;20126;-66
2020/12/15 05:54:08;;;;;;;21.00;13.65;;;;;;;5.81;100.00;100029.09;5054002;28;20040;-66
2020/12/15 05:57:04;;;;;;;19.67;14.02;;;;;;;5.83;100.00;100023.69;5054297;28;20147;-66
2020/12/15 05:59:47;;;;;;;20.38;12.68;;;;;;;5.82;100.00;100025.47;5053903;28;20044;-66
2020/12/15 06:02:31;;;;;;;25.45;16.13;;;;;;;5.83;100.00;100027.16;5053183;28;20051;-66
2020/12/15 06:05:16;;;;;;;18.30;13.07;;;;;;;5.81;100.00;100029.09;5052886;28;20420;-66
2020/12/15 06:08:01;;;;;;;21.38;14.60;;;;;;;5.82;100.00;100041.34;5038607;28;20120;-66
2020/12/15 06:10:48;;;;;;;24.35;15.10;;;;;;;5.83;100.00;100037.75;5038597;28;20413;-66
2020/12/15 06:13:32;;;;;;;19.92;14.68;;;;;;;5.81;100.00;100031.75;5025153;28;20163;-66
2020/12/15 06:16:16;;;;;;;19.50;13.65;;;;;;;5.83;100.00;100047.50;5053928;28;20056;-65
2020/12/15 06:19:00;;;;;;;19.95;14.23;;;;;;;5.83;100.00;100048.31;5038585;28;20502;-65
2020/12/15 06:21:54;;;;;;;22.52;14.75;;;;;;;5.84;100.00;100043.88;5053721;28;20063;-67
2020/12/15 06:24:38;;;;;;;21.98;14.50;;;;;;;5.85;100.00;100046.41;5024679;28;20424;-66
2020/12/15 06:27:43;;;;;;;21.20;14.18;;;;;;;5.84;100.00;100043.88;5053066;28;20524;-66
2020/12/15 06:30:28;;;;;;;23.08;15.13;;;;;;;5.86;100.00;100042.78;5053481;28;20102;-66
2020/12/15 06:33:14;;;;;;;19.58;12.95;;;;;;;5.85;100.00;100041.09;5053776;28;20083;-66
2020/12/15 06:35:58;;;;;;;20.25;13.25;;;;;;;5.88;100.00;100034.75;5038679;28;20068;-67
2020/12/15 06:38:42;;;;;;;29.05;14.48;;;;;;;5.89;100.00;100037.28;5038465;28;20063;-67
2020/12/15 06:41:27;;;;;;;21.75;13.95;;;;;;;5.91;100.00;100040.63;5053238;28;20119;-67
2020/12/15 06:44:11;;;;;;;24.35;13.98;;;;;;;5.93;100.00;100038.72;5038092;28;20051;-67
2020/12/15 06:46:56;;;;;;;24.60;15.15;;;;;;;5.94;100.00;100050.16;5038307;28;20067;-66
2020/12/15 06:49:40;;;;;;;21.90;14.02;;;;;;;5.95;100.00;100052.66;5038399;28;20140;-66
2020/12/15 06:52:28;;;;;;;26.77;14.13;;;;;;;5.98;100.00;100055.06;5053274;28;20420;-66
2020/12/15 06:55:12;;;;;;;20.35;14.00;;;;;;;5.98;100.00;100052.44;5053001;28;20052;-66
2020/12/15 06:58:02;;;;;;;21.63;13.18;;;;;;;5.99;100.00;100046.19;5053067;28;20048;-66
2020/12/15 07:00:46;;;;;;;25.73;14.55;;;;;;;6.02;100.00;100043.28;5053290;28;20056;-66
2020/12/15 07:03:34;;;;;;;;;;;;;;;6.01;100.00;100036.31;5052620;28;20128;-67
2020/12/15 07:06:19;;;;;;;28.92;14.60;;;;;;;6.06;100.00;100039.41;5038267;28;19919;-66
2020/12/15 07:09:09;;;;;;;25.52;14.38;;;;;;;6.07;100.00;100035.81;5052932;28;20552;-66
2020/12/15 07:11:53;;;;;;;18.58;12.13;;;;;;;6.08;100.00;100028.72;5052978;28;20090;-66
2020/12/15 07:14:38;;;;;;;17.33;12.18;;;;;;;6.08;100.00;100037.50;5038095;28;20140;-66
2020/12/15 07:17:22;;;;;;;28.08;14.23;;;;;;;6.16;100.00;100039.53;5037787;28;20548;-66
2020/12/15 07:20:06;;;;;;;22.52;13.40;;;;;;;6.24;100.00;100053.00;5053220;28;20048;-66
2020/12/15 07:22:51;;;;;;;20.10;12.95;;;;;;;6.18;100.00;100056.97;5038007;28;20056;-66
2020/12/15 07:25:35;;;;;;;18.67;11.80;;;;;;;6.26;100.00;100051.91;5037802;28;20063;-66
2020/12/15 07:28:20;;;;;;;19.45;12.70;;;;;;;6.18;100.00;100062.25;5052735;28;20111;-66
2020/12/15 07:31:04;;;;;;;19.55;11.77;;;;;;;6.17;100.00;100047.34;5052688;28;20091;-66
2020/12/15 07:33:48;;;;;;;18.75;13.10;;;;;;;6.18;100.00;100054.31;5053020;28;20091;-66
2020/12/15 07:36:34;;;;;;;19.67;12.70;;;;;;;6.11;100.00;100062.88;5052921;28;20139;-66
2020/12/15 07:39:18;;;;;;;20.98;12.65;;;;;;;6.03;100.00;100076.72;5037837;28;20040;-66
2020/12/15 07:42:04;;;;;;;24.67;13.73;;;;;;;6.01;100.00;100078.66;5056815;28;20198;-64
2020/12/15 07:44:56;;;;;;;26.55;13.90;;;;;;;6.02;100.00;100075.03;5056507;28;20118;-66
2020/12/15 07:47:42;;;;;;;20.17;13.30;;;;;;;5.99;100.00;100071.78;5041631;28;20111;-66
2020/12/15 07:50:28;;;;;;;18.33;11.88;;;;;;;6.01;100.00;100075.13;5041561;28;20048;-65
2020/12/15 07:53:12;;;;;;;20.42;12.18;;;;;;;6.04;100.00;100069.63;5056276;28;20048;-66
2020/12/15 07:56:03;;;;;;;21.92;13.73;;;;;;;6.05;100.00;100074.78;5056254;28;20048;-65
2020/12/15 07:58:52;;;;;;;17.75;12.52;;;;;;;6.10;100.00;100071.78;5056185;28;20136;-66
2020/12/15 08:01:35;;;;;;;27.52;16.90;;;;;;;6.14;100.00;100074.06;5041372;28;20044;-66
2020/12/15 08:04:20;;;;;;;27.00;16.70;;;;;;;6.21;100.00;100069.13;5055314;28;20065;-66
2020/12/15 08:07:04;;;;;;;29.00;16.70;;;;;;;6.26;100.00;100067.78;5056443;28;20060;-66
2020/12/15 08:09:48;;;;;;;37.90;22.98;;;;;;;6.32;100.00;100066.47;5054946;28;20124;-66
2020/12/15 08:12:33;;;;;;;27.65;18.92;;;;;;;6.38;100.00;100072.09;5041126;28;20052;-66
2020/12/15 08:15:17;;;;;;;24.38;16.95;;;;;;;6.46;100.00;100072.34;5026852;28;20516;-66
2020/12/15 08:18:02;;;;;;;22.48;15.35;;;;;;;6.54;100.00;100080.50;5054830;28;20532;-67
2020/12/15 08:20:47;;;;;;;19.92;14.27;;;;;;;6.58;100.00;100074.00;5056109;28;20094;-67
2020/12/15 08:23:31;;;;;;;20.08;13.43;;;;;;;6.63;100.00;100081.56;5055766;28;20055;-66
2020/12/15 08:26:17;;;;;;;21.85;14.65;;;;;;;6.69;100.00;100087.22;5055743;28;20417;-66
2020/12/15 08:29:07;;;;;;;18.63;13.02;;;;;;;6.76;100.00;100085.75;5055946;28;20183;-66
2020/12/15 08:31:51;;;;;;;19.98;12.43;;;;;;;6.80;100.00;100096.94;5041322;28;20464;-66
2020/12/15 08:34:35;;;;;;;19.52;12.88;;;;;;;6.80;100.00;100092.50;5055405;28;20433;-66
2020/12/15 08:37:22;;;;;;;15.65;11.57;;;;;;;6.82;100.00;100087.91;5055287;28;20414;-65
2020/12/15 08:40:07;;;;;;;16.60;12.07;;;;;;;6.86;100.00;100091.16;5040421;28;20130;-66
2020/12/15 08:43:01;;;;;;;18.25;12.40;;;;;;;6.90;100.00;100095.22;5040465;28;20056;-66
2020/12/15 08:45:45;;;;;;;15.52;11.77;;;;;;;6.92;100.00;100083.56;5040250;28;20127;-66
2020/12/15 08:48:29;;;;;;;16.67;11.88;;;;;;;6.94;100.00;100080.75;5040303;28;20044;-66
2020/12/15 08:51:14;;;;;;;14.65;11.32;;;;;;;6.96;100.00;100084.97;5040242;28;20125;-66
2020/12/15 08:53:59;;;;;;;17.70;12.20;;;;;;;7.00;100.00;100086.41;5040284;28;20413;-66
2020/12/15 08:56:43;;;;;;;16.58;12.18;;;;;;;7.04;100.00;100097.56;5055093;28;20048;-66
2020/12/15 08:59:32;;;;;;;19.95;12.38;;;;;;;7.10;100.00;100100.56;5054629;28;20048;-66
2020/12/15 09:02:19;;;;;;;16.10;11.77;;;;;;;7.19;100.00;100091.84;5055272;28;20044;-66
2020/12/15 09:05:11;;;;;;;18.60;12.57;;;;;;;7.29;100.00;100094.59;5026251;28;20052;-66
2020/12/15 09:08:01;;;;;;;16.08;10.70;;;;;;;7.41;100.00;100088.25;5039739;28;20043;-66
2020/12/15 09:10:45;;;;;;;17.45;12.05;;;;;;;7.45;100.00;100092.31;5040015;28;20118;-66
2020/12/15 09:13:29;;;;;;;18.48;12.32;;;;;;;7.58;100.00;100096.47;5026256;28;20052;-67
2020/12/15 09:16:23;;;;;;;18.52;12.32;;;;;;;7.68;100.00;100090.28;5054842;28;20071;-66
2020/12/15 09:19:12;;;;;;;18.92;13.85;;;;;;;7.73;100.00;100108.47;5054662;28;20575;-65
2020/12/15 09:22:06;;;;;;;17.52;12.20;;;;;;;7.73;100.00;100114.59;5039549;28;20131;-66
2020/12/15 09:24:50;;;;;;;17.92;12.68;;;;;;;7.72;100.00;100125.34;5040126;28;20052;-66
2020/12/15 09:27:37;;;;;;;17.33;12.48;;;;;;;7.71;100.00;100124.50;5039760;28;20065;-66
2020/12/15 09:30:20;;;;;;;17.20;11.00;;;;;;;7.71;100.00;100119.19;5054442;28;20102;-66
2020/12/15 09:33:08;;;;;;;19.40;12.00;;;;;;;7.84;100.00;100117.19;5053723;28;20051;-65
2020/12/15 09:35:52;;;;;;;17.85;12.40;;;;;;;8.07;100.00;100112.56;5054718;28;20413;-66
2020/12/15 09:38:36;;;;;;;19.58;12.02;;;;;;;8.28;100.00;100121.34;5054641;28;20183;-65
2020/12/15 09:41:20;;;;;;;17.65;11.68;;;;;;;8.46;100.00;100133.88;5025241;28;20436;-66
2020/12/15 09:44:04;;;;;;;13.18;10.05;;;;;;;8.52;98.74;100125.38;5054314;28;20576;-64
2020/12/15 09:46:48;;;;;;;14.93;10.68;;;;;;;8.47;97.54;100122.25;5054199;28;20124;-65
2020/12/15 09:49:34;;;;;;;15.30;10.82;;;;;;;8.60;98.56;100119.38;5053178;28;20064;-65
2020/12/15 09:52:18;;;;;;;16.25;11.10;;;;;;;8.72;98.55;100123.59;5054391;28;20048;-65
2020/12/15 09:55:02;;;;;;;13.77;9.80;;;;;;;8.92;97.03;100123.53;5038968;28;20515;-66
2020/12/15 09:57:45;;;;;;;15.65;10.48;;;;;;;9.11;97.97;100130.69;5054322;28;20501;-65
2020/12/15 10:00:30;;;;;;;15.35;11.07;;;;;;;9.21;96.99;100124.41;5053324;28;20509;-66
2020/12/15 10:03:14;;;;;;;17.27;10.90;;;;;;;9.19;93.95;100126.34;5053537;28;20048;-65
2020/12/15 10:05:58;;;;;;;17.75;11.68;;;;;;;9.03;95.04;100126.06;5054159;28;20075;-65
2020/12/15 10:08:43;;;;;;;15.52;11.23;;;;;;;9.02;96.76;100128.84;5053623;28;20063;-66
2020/12/15 10:11:28;;;;;;;16.52;11.18;;;;;;;9.00;97.22;100121.03;5038687;28;20126;-66
2020/12/15 10:14:11;;;;;;;;;;;;;;;8.95;97.93;100122.41;5054490;28;20102;-66
2020/12/15 10:16:55;;;;;;;20.58;13.13;;;;;;;9.01;97.38;100120.03;5038642;28;19923;-66
2020/12/15 10:19:39;;;;;;;16.17;11.40;;;;;;;9.06;94.54;100123.09;5038802;28;20524;-66
2020/12/15 10:22:25;;;;;;;15.45;11.35;;;;;;;9.05;94.90;100133.91;5053759;28;20047;-66
2020/12/15 10:25:09;;;;;;;19.35;11.40;;;;;;;9.04;94.51;100132.19;5038470;28;20103;-66
2020/12/15 10:27:53;;;;;;;16.17;11.50;;;;;;;8.75;95.77;100147.28;5053362;28;20102;-66
2020/12/15 10:30:37;;;;;;;14.95;11.65;;;;;;;8.52;98.76;100135.16;5053712;28;20048;-66
2020/12/15 10:33:21;;;;;;;;;;;;;;;8.43;99.42;100146.56;5024722;28;20102;-66
2020/12/15 10:36:05;;;;;;;12.75;10.27;;;;;;;8.33;96.70;100135.91;5053255;28;19994;-61
2020/12/15 10:38:49;;;;;;;17.95;11.38;;;;;;;8.23;98.18;100136.88;5053182;28;20179;-66
2020/12/15 10:41:37;;;;;;;15.85;11.95;;;;;;;8.12;99.98;100131.56;5053509;28;20125;-66
2020/12/15 10:44:20;;;;;;;19.38;12.25;;;;;;;8.04;100.00;100118.16;5053517;28;20467;-66
2020/12/15 10:47:04;;;;;;;18.42;12.38;;;;;;;8.14;100.00;100113.72;5052308;28;20048;-67
2020/12/15 10:49:49;;;;;;;18.50;12.30;;;;;;;8.14;100.00;100121.69;5052227;28;20051;-66
2020/12/15 10:52:33;;;;;;;19.83;12.57;;;;;;;8.30;100.00;100135.34;5038256;28;20051;-66
2020/12/15 10:55:16;;;;;;;16.35;11.23;;;;;;;8.29;100.00;100134.50;5038168;28;20464;-66
2020/12/15 10:58:00;;;;;;;16.90;11.60;;;;;;;8.32;100.00;100131.59;5053027;28;20068;-66
2020/12/15 11:00:44;;;;;;;17.42;12.25;;;;;;;8.35;100.00;100128.66;5052599;28;20044;-65
2020/12/15 11:03:28;;;;;;;18.40;12.38;;;;;;;8.29;99.08;100131.84;5037989;28;20074;-66
2020/12/15 11:06:12;;;;;;;16.27;11.27;;;;;;;8.25;99.99;100127.75;5053207;28;20079;-66
2020/12/15 11:08:57;;;;;;;17.15;12.55;;;;;;;8.42;99.32;100135.13;5053247;28;20040;-66
2020/12/15 11:11:47;;;;;;;19.55;12.90;;;;;;;8.46;99.72;100131.22;5024500;28;20063;-67
2020/12/15 11:14:34;;;;;;;24.00;15.35;;;;;;;8.65;100.00;100133.13;5053617;28;20412;-65
2020/12/15 11:17:18;;;;;;;29.73;15.07;;;;;;;8.75;99.14;100131.31;5057260;28;20133;-66
2020/12/15 11:20:03;;;;;;;24.55;15.55;;;;;;;8.74;99.62;100145.56;5057277;28;20052;-65
2020/12/15 11:22:47;;;;;;;21.83;14.93;;;;;;;8.71;100.00;100146.69;5042278;28;20066;-65
2020/12/15 11:25:31;;;;;;;22.90;14.85;;;;;;;8.57;99.91;100148.88;5056934;28;20081;-65
2020/12/15 11:28:16;;;;;;;23.50;14.80;;;;;;;8.44;100.00;100150.94;5056863;28;20059;-65
2020/12/15 11:31:02;;;;;;;24.92;15.32;;;;;;;8.39;100.00;100146.03;5041983;28;20067;-66
2020/12/15 11:33:46;;;;;;;19.23;14.00;;;;;;;8.39;100.00;100140.72;5056686;28;20048;-66
2020/12/15 11:36:31;;;;;;;21.23;14.32;;;;;;;8.40;100.00;100141.53;5056539;28;20179;-66
2020/12/15 11:39:15;;;;;;;21.30;14.52;;;;;;;8.40;100.00;100130.91;5041637;28;20049;-65
2020/12/15 11:41:59;;;;;;;27.67;15.10;;;;;;;8.41;100.00;100130.78;5056874;28;20103;-66
2020/12/15 11:44:42;;;;;;;20.10;15.05;;;;;;;8.29;100.00;100128.34;5041260;28;20139;-67
2020/12/15 11:47:27;;;;;;;24.67;15.88;;;;;;;8.28;100.00;100124.00;5056516;28;20106;-66
2020/12/15 11:50:11;;;;;;;19.65;13.68;;;;;;;8.23;100.00;100128.91;5056667;28;20098;-67
2020/12/15 11:52:59;;;;;;;23.35;15.68;;;;;;;8.22;100.00;100130.69;5056752;28;20047;-67
2020/12/15 11:55:43;;;;;;;21.85;15.38;;;;;;;8.34;100.00;100134.13;5055644;28;20174;-66
2020/12/15 11:58:27;;;;;;;21.35;15.43;;;;;;;8.35;100.00;100122.50;5056214;28;20048;-65
2020/12/15 12:01:12;;;;;;;19.65;14.52;;;;;;;8.33;100.00;100135.91;5056427;28;20114;-66
2020/12/15 12:03:56;;;;;;;21.13;14.80;;;;;;;8.43;100.00;100136.78;5041619;28;20539;-66
2020/12/15 12:06:40;;;;;;;18.08;13.65;;;;;;;8.38;100.00;100132.88;5055939;28;20182;-65
2020/12/15 12:09:24;;;;;;;24.20;15.52;;;;;;;8.36;100.00;100134.81;5056120;28;20520;-66
2020/12/15 12:12:07;;;;;;;20.73;14.60;;;;;;;8.34;100.00;100137.59;5055077;28;20052;-65
2020/12/15 12:14:51;;;;;;;24.13;14.88;;;;;;;8.33;100.00;100143.03;5056264;28;20048;-66
2020/12/15 12:17:35;;;;;;;21.88;15.05;;;;;;;8.37;100.00;100132.00;5054732;28;20048;-64
2020/12/15 12:20:19;;;;;;;21.42;14.18;;;;;;;8.35;100.00;100135.78;5055111;28;20063;-66
2020/12/15 12:23:04;;;;;;;22.75;14.30;;;;;;;8.45;100.00;100142.00;5055931;28;20124;-66
2020/12/15 12:25:48;;;;;;;20.67;14.35;;;;;;;8.55;100.00;100140.22;5055193;28;20052;-66
2020/12/15 12:28:32;;;;;;;17.23;13.45;;;;;;;8.59;100.00;100136.28;5055893;28;20051;-65
2020/12/15 12:31:16;;;;;;;19.35;12.95;;;;;;;8.58;100.00;100146.06;5055696;28;20136;-65
2020/12/15 12:34:00;;;;;;;22.08;13.32;;;;;;;8.55;100.00;100150.84;5027081;28;20091;-66